createdAt,value
2023-02-03T00:00:16.563Z,47.41
2023-02-03T00:01:16.548Z,48.21
2023-02-03T00:04:53.248Z,47.55
2023-02-03T00:05:53.236Z,45.79
2023-02-03T00:06:53.230Z,44.47
2023-02-03T00:07:53.208Z,47.52
2023-02-03T00:08:53.198Z,55.47
2023-02-03T00:09:53.198Z,52.98
2023-02-03T00:10:53.176Z,51.02
2023-02-03T00:11:53.187Z,45.35
2023-02-03T00:12:53.156Z,44.98
2023-02-03T00:13:54.135Z,44.57
2023-02-03T00:14:53.135Z,45.13
2023-02-03T00:15:53.132Z,45.38
2023-02-03T00:16:53.115Z,45.53
2023-02-03T00:17:53.159Z,45.37
2023-02-03T00:18:53.096Z,43.70
2023-02-03T00:19:53.090Z,44.29
2023-02-03T00:20:53.091Z,48.15
2023-02-03T00:21:53.070Z,44.29
2023-02-03T00:22:53.060Z,48.18
2023-02-03T00:23:53.046Z,45.84
2023-02-03T00:24:53.029Z,46.36
2023-02-03T00:25:53.027Z,45.84
2023-02-03T00:26:53.010Z,46.19
2023-02-03T00:27:53.047Z,45.90
2023-02-03T00:28:53.009Z,45.97
2023-02-03T00:29:52.981Z,45.66
2023-02-03T00:30:52.966Z,45.00
2023-02-03T00:31:53.068Z,43.73
2023-02-03T00:32:52.959Z,44.87
2023-02-03T00:33:52.944Z,45.95
2023-02-03T00:34:52.926Z,44.36
2023-02-03T00:35:52.914Z,43.26
2023-02-03T00:36:52.912Z,43.49
2023-02-03T00:37:52.910Z,44.97
2023-02-03T00:38:52.888Z,45.71
2023-02-03T00:39:52.875Z,45.33
2023-02-03T00:40:52.868Z,44.55
2023-02-03T00:41:52.858Z,43.38
2023-02-03T00:42:52.863Z,43.08
2023-02-03T00:43:52.834Z,44.43
2023-02-03T00:44:52.824Z,43.46
2023-02-03T00:45:52.849Z,44.32
2023-02-03T00:46:52.803Z,44.25
2023-02-03T00:47:52.799Z,44.80
2023-02-03T00:48:52.802Z,44.49
2023-02-03T00:49:52.785Z,44.39
2023-02-03T00:50:52.761Z,44.27
2023-02-03T00:51:52.757Z,48.32
2023-02-03T00:52:52.746Z,44.80
2023-02-03T00:53:52.746Z,43.62
2023-02-03T00:54:52.734Z,44.54
2023-02-03T00:55:52.729Z,44.85
2023-02-03T00:56:52.703Z,43.98
2023-02-03T00:57:52.692Z,44.34
2023-02-03T00:58:52.692Z,43.84
2023-02-03T00:59:52.675Z,43.49
2023-02-03T01:00:52.680Z,44.73
2023-02-03T01:01:52.713Z,46.97
2023-02-03T01:02:52.647Z,45.93
2023-02-03T01:03:52.647Z,44.48
2023-02-03T01:04:52.621Z,47.69
2023-02-03T01:05:52.612Z,45.03
2023-02-03T01:06:52.597Z,44.06
2023-02-03T01:07:52.593Z,44.11
2023-02-03T01:08:52.595Z,44.68
2023-02-03T01:09:52.572Z,43.60
2023-02-03T01:10:52.584Z,44.67
2023-02-03T01:11:52.574Z,46.32
2023-02-03T01:12:52.536Z,44.64
2023-02-03T01:13:52.538Z,43.01
2023-02-03T01:14:52.531Z,43.99
2023-02-03T01:15:52.564Z,44.10
2023-02-03T01:16:52.531Z,43.24
2023-02-03T01:17:52.489Z,46.83
2023-02-03T01:18:52.531Z,47.19
2023-02-03T01:19:52.467Z,45.00
2023-02-03T01:20:52.449Z,45.08
2023-02-03T01:21:52.441Z,45.68
2023-02-03T01:22:52.436Z,45.41
2023-02-03T01:23:52.438Z,44.30
2023-02-03T01:24:52.410Z,44.40
2023-02-03T01:25:52.403Z,43.80
2023-02-03T01:26:52.389Z,45.15
2023-02-03T01:27:52.437Z,44.27
2023-02-03T01:28:52.387Z,45.27
2023-02-03T01:29:52.362Z,47.30
2023-02-03T01:30:52.490Z,45.70
2023-02-03T01:31:52.444Z,45.35
2023-02-03T01:32:52.334Z,45.39
2023-02-03T01:33:52.329Z,46.01
2023-02-03T01:34:52.313Z,45.72
2023-02-03T01:35:52.300Z,46.76
2023-02-03T01:36:52.285Z,47.52
2023-02-03T01:37:52.287Z,45.26
2023-02-03T01:38:52.280Z,43.95
2023-02-03T01:39:52.257Z,43.55
2023-02-03T01:40:52.247Z,45.32
2023-02-03T01:41:52.239Z,48.06
2023-02-03T01:42:53.349Z,45.52
2023-02-03T01:43:53.354Z,45.22
2023-02-03T01:44:53.328Z,46.40
2023-02-03T01:45:53.356Z,46.30
2023-02-03T01:46:53.312Z,46.92
2023-02-03T01:47:53.300Z,45.61
2023-02-03T01:48:53.293Z,45.39
2023-02-03T01:49:53.271Z,45.94
2023-02-03T01:50:53.266Z,45.63
2023-02-03T01:51:53.253Z,45.05
2023-02-03T01:52:53.252Z,45.94
2023-02-03T01:53:53.252Z,46.44
2023-02-03T01:54:53.229Z,46.05
2023-02-03T01:55:53.213Z,45.85
2023-02-03T01:56:53.213Z,45.75
2023-02-03T01:57:53.198Z,45.78
2023-02-03T01:58:53.206Z,46.62
2023-02-03T01:59:53.180Z,45.80
2023-02-03T02:00:53.167Z,45.79
2023-02-03T02:01:53.166Z,44.71
2023-02-03T02:02:53.177Z,44.35
2023-02-03T02:03:53.148Z,44.93
2023-02-03T02:04:53.136Z,47.31
2023-02-03T02:05:53.118Z,46.77
2023-02-03T02:06:53.108Z,45.68
2023-02-03T02:07:53.097Z,44.95
2023-02-03T02:08:53.097Z,44.17
2023-02-03T02:09:53.098Z,44.80
2023-02-03T02:10:53.065Z,45.43
2023-02-03T02:11:53.064Z,45.64
2023-02-03T02:12:53.053Z,44.33
2023-02-03T02:13:53.039Z,44.25
2023-02-03T02:14:53.025Z,44.52
2023-02-03T02:15:53.051Z,43.59
2023-02-03T02:16:53.007Z,43.79
2023-02-03T02:17:52.988Z,45.20
2023-02-03T02:18:52.981Z,44.43
2023-02-03T02:19:52.982Z,43.80
2023-02-03T02:20:52.966Z,44.11
2023-02-03T02:21:52.946Z,44.30
2023-02-03T02:22:52.942Z,48.20
2023-02-03T02:23:52.930Z,45.02
2023-02-03T02:24:52.930Z,45.08
2023-02-03T02:25:52.913Z,43.83
2023-02-03T02:26:52.906Z,44.55
2023-02-03T02:27:52.911Z,44.78
2023-02-03T02:28:52.889Z,46.37
2023-02-03T02:29:52.883Z,45.08
2023-02-03T02:30:52.947Z,44.81
2023-02-03T02:31:52.898Z,45.94
2023-02-03T02:32:52.847Z,43.25
2023-02-03T02:33:52.831Z,42.35
2023-02-03T02:34:52.838Z,44.52
2023-02-03T02:35:52.824Z,44.86
2023-02-03T02:36:52.803Z,45.57
2023-02-03T02:37:52.795Z,44.18
2023-02-03T02:38:52.790Z,44.72
2023-02-03T02:39:52.800Z,44.04
2023-02-03T02:40:52.775Z,46.60
2023-02-03T02:41:52.767Z,44.26
2023-02-03T02:42:52.742Z,44.88
2023-02-03T02:43:52.727Z,45.78
2023-02-03T02:44:52.735Z,45.02
2023-02-03T02:45:52.740Z,43.37
2023-02-03T02:46:52.702Z,44.05
2023-02-03T02:47:52.708Z,45.23
2023-02-03T02:48:52.717Z,44.45
2023-02-03T02:49:52.702Z,45.48
2023-02-03T02:50:52.698Z,44.88
2023-02-03T02:51:52.658Z,45.37
2023-02-03T02:52:52.659Z,45.12
2023-02-03T02:53:52.637Z,45.45
2023-02-03T02:54:52.642Z,45.58
2023-02-03T02:55:52.616Z,45.61
2023-02-03T02:56:52.617Z,46.47
2023-02-03T02:57:52.586Z,44.47
2023-02-03T02:58:52.579Z,44.48
2023-02-03T02:59:52.568Z,46.73
2023-02-03T03:00:52.569Z,42.85
2023-02-03T03:01:52.609Z,44.44
2023-02-03T03:02:52.563Z,44.10
2023-02-03T03:03:52.545Z,45.11
2023-02-03T03:04:52.663Z,44.65
2023-02-03T03:05:52.533Z,46.45
2023-02-03T03:06:52.504Z,46.23
2023-02-03T03:07:52.488Z,46.23
2023-02-03T03:08:53.495Z,45.68
2023-02-03T03:09:52.480Z,44.57
2023-02-03T03:10:52.481Z,45.33
2023-02-03T03:11:52.463Z,46.61
2023-02-03T03:12:52.450Z,46.37
2023-02-03T03:13:52.446Z,49.02
2023-02-03T03:14:52.430Z,45.87
2023-02-03T03:15:52.454Z,47.56
2023-02-03T03:16:52.411Z,45.63
2023-02-03T03:17:52.400Z,45.42
2023-02-03T03:18:52.387Z,46.87
2023-02-03T03:19:52.380Z,46.69
2023-02-03T03:20:52.378Z,46.76
2023-02-03T03:21:52.365Z,45.66
2023-02-03T03:22:52.356Z,44.75
2023-02-03T03:23:52.388Z,46.69
2023-02-03T03:24:52.329Z,46.04
2023-02-03T03:25:52.340Z,46.48
2023-02-03T03:26:52.311Z,46.47
2023-02-03T03:27:52.326Z,46.36
2023-02-03T03:28:52.293Z,45.85
2023-02-03T03:29:52.282Z,46.25
2023-02-03T03:30:52.447Z,45.10
2023-02-03T03:31:52.302Z,44.51
2023-02-03T03:32:52.250Z,47.50
2023-02-03T03:33:52.243Z,54.78
2023-02-03T03:34:52.236Z,50.22
2023-02-03T03:35:52.235Z,47.77
2023-02-03T03:36:52.211Z,47.41
2023-02-03T03:37:52.205Z,49.75
2023-02-03T03:38:52.194Z,49.79
2023-02-03T03:39:52.181Z,48.20
2023-02-03T03:40:52.186Z,48.01
2023-02-03T03:41:52.168Z,46.16
2023-02-03T03:42:52.156Z,45.24
2023-02-03T03:43:52.150Z,44.90
2023-02-03T03:44:52.142Z,45.96
2023-02-03T03:45:52.134Z,46.00
2023-02-03T03:46:52.126Z,45.10
2023-02-03T03:47:52.109Z,51.79
2023-02-03T03:48:52.094Z,47.40
2023-02-03T03:49:52.084Z,47.09
2023-02-03T03:50:52.094Z,45.83
2023-02-03T03:51:52.061Z,46.26
2023-02-03T03:52:52.054Z,51.89
2023-02-03T03:53:52.047Z,46.41
2023-02-03T03:54:52.038Z,46.81
2023-02-03T03:55:52.041Z,51.96
2023-02-03T03:56:52.019Z,46.02
2023-02-03T03:57:52.003Z,47.98
2023-02-03T03:58:51.997Z,46.92
2023-02-03T03:59:51.988Z,45.29
2023-02-03T04:00:51.988Z,45.86
2023-02-03T04:01:52.104Z,46.26
2023-02-03T04:02:52.034Z,46.24
2023-02-03T04:03:51.947Z,46.25
2023-02-03T04:04:51.963Z,45.75
2023-02-03T04:05:51.939Z,45.39
2023-02-03T04:06:51.918Z,45.39
2023-02-03T04:07:51.903Z,46.94
2023-02-03T04:08:51.897Z,46.27
2023-02-03T04:09:51.890Z,47.39
2023-02-03T04:10:51.887Z,48.94
2023-02-03T04:11:51.870Z,48.85
2023-02-03T04:12:51.864Z,47.37
2023-02-03T04:13:51.857Z,47.83
2023-02-03T04:14:51.843Z,51.24
2023-02-03T04:15:51.943Z,49.98
2023-02-03T04:16:51.827Z,51.69
2023-02-03T04:17:51.811Z,52.69
2023-02-03T04:18:51.793Z,49.75
2023-02-03T04:19:51.797Z,52.02
2023-02-03T04:20:51.783Z,50.16
2023-02-03T04:21:51.781Z,49.48
2023-02-03T04:22:51.760Z,53.49
2023-02-03T04:23:51.750Z,53.02
2023-02-03T04:24:51.740Z,52.77
2023-02-03T04:25:51.735Z,46.91
2023-02-03T04:26:51.734Z,45.93
2023-02-03T04:27:51.742Z,47.28
2023-02-03T04:28:51.698Z,47.70
2023-02-03T04:29:51.694Z,49.31
2023-02-03T04:30:51.727Z,46.61
2023-02-03T04:31:51.759Z,51.64
2023-02-03T04:32:51.662Z,46.52
2023-02-03T04:33:51.657Z,46.87
2023-02-03T04:34:51.639Z,50.30
2023-02-03T04:35:51.627Z,47.26
2023-02-03T04:36:51.632Z,47.77
2023-02-03T04:37:51.628Z,47.50
2023-02-03T04:38:51.620Z,50.60
2023-02-03T04:39:51.589Z,51.66
2023-02-03T04:40:51.582Z,52.38
2023-02-03T04:41:51.596Z,47.33
2023-02-03T04:42:51.564Z,48.47
2023-02-03T04:43:51.561Z,48.56
2023-02-03T04:44:51.559Z,48.38
2023-02-03T04:45:51.602Z,52.47
2023-02-03T04:46:51.532Z,47.21
2023-02-03T04:47:54.149Z,50.70
2023-02-03T04:48:52.509Z,46.38
2023-02-03T04:49:51.505Z,50.44
2023-02-03T04:50:51.481Z,50.32
2023-02-03T04:51:51.481Z,47.28
2023-02-03T04:52:51.461Z,47.66
2023-02-03T04:53:51.455Z,46.88
2023-02-03T04:54:51.454Z,51.98
2023-02-03T04:55:51.432Z,48.13
2023-02-03T04:56:51.435Z,46.13
2023-02-03T04:57:51.413Z,46.28
2023-02-03T04:58:51.408Z,46.53
2023-02-03T04:59:51.391Z,50.09
2023-02-03T05:00:52.407Z,47.83
2023-02-03T05:01:51.400Z,50.46
2023-02-03T05:02:51.401Z,50.29
2023-02-03T05:03:51.357Z,50.19
2023-02-03T05:04:51.347Z,50.25
2023-02-03T05:05:51.343Z,54.77
2023-02-03T05:06:51.337Z,56.06
2023-02-03T05:07:51.311Z,52.13
2023-02-03T05:08:51.301Z,53.17
2023-02-03T05:09:51.295Z,48.38
2023-02-03T05:10:51.280Z,48.80
2023-02-03T05:11:51.290Z,52.52
2023-02-03T05:12:51.264Z,47.72
2023-02-03T05:13:51.258Z,52.02
2023-02-03T05:14:51.243Z,51.40
2023-02-03T05:15:51.248Z,49.98
2023-02-03T05:16:51.272Z,51.09
2023-02-03T05:17:51.221Z,47.95
2023-02-03T05:18:51.202Z,52.91
2023-02-03T05:19:51.263Z,52.32
2023-02-03T05:20:51.186Z,49.41
2023-02-03T05:21:51.392Z,55.26
2023-02-03T05:22:51.166Z,52.49
2023-02-03T05:23:51.164Z,49.81
2023-02-03T05:24:51.150Z,49.62
2023-02-03T05:25:51.135Z,47.35
2023-02-03T05:26:51.135Z,48.09
2023-02-03T05:27:51.151Z,47.33
2023-02-03T05:28:52.394Z,49.48
2023-02-03T05:29:51.099Z,52.55
2023-02-03T05:30:51.147Z,51.65
2023-02-03T05:31:51.117Z,50.20
2023-02-03T05:32:51.084Z,52.21
2023-02-03T05:33:51.053Z,49.81
2023-02-03T05:34:51.060Z,51.30
2023-02-03T05:35:51.039Z,51.02
2023-02-03T05:36:51.023Z,50.40
2023-02-03T05:37:52.023Z,57.95
2023-02-03T05:38:51.014Z,48.28
2023-02-03T05:39:51.007Z,49.46
2023-02-03T05:40:51.011Z,50.22
2023-02-03T05:41:50.972Z,53.45
2023-02-03T05:42:50.977Z,51.59
2023-02-03T05:43:50.952Z,49.31
2023-02-03T05:44:50.943Z,52.41
2023-02-03T05:45:50.987Z,59.24
2023-02-03T05:46:50.924Z,56.57
2023-02-03T05:47:50.926Z,52.21
2023-02-03T05:48:50.902Z,52.33
2023-02-03T05:49:50.899Z,54.36
2023-02-03T05:50:50.888Z,54.24
2023-02-03T05:51:50.880Z,54.67
2023-02-03T05:52:50.886Z,50.40
2023-02-03T05:53:50.872Z,52.04
2023-02-03T05:54:50.850Z,51.78
2023-02-03T05:55:50.835Z,54.86
2023-02-03T05:56:50.867Z,52.67
2023-02-03T05:57:50.843Z,52.30
2023-02-03T05:58:50.846Z,51.60
2023-02-03T05:59:50.816Z,54.76
2023-02-03T06:00:51.819Z,47.68
2023-02-03T06:01:50.793Z,50.81
2023-02-03T06:02:50.840Z,51.47
2023-02-03T06:03:50.946Z,50.96
2023-02-03T06:04:50.781Z,50.31
2023-02-03T06:05:50.750Z,52.38
2023-02-03T06:06:50.774Z,52.29
2023-02-03T06:07:50.753Z,50.66
2023-02-03T06:08:50.742Z,56.15
2023-02-03T06:09:50.718Z,51.69
2023-02-03T06:10:50.717Z,50.66
2023-02-03T06:11:50.696Z,51.90
2023-02-03T06:12:50.710Z,55.35
2023-02-03T06:13:50.685Z,51.97
2023-02-03T06:14:50.679Z,55.67
2023-02-03T06:15:50.661Z,53.71
2023-02-03T06:16:50.688Z,52.01
2023-02-03T06:17:50.676Z,53.99
2023-02-03T06:18:50.634Z,54.01
2023-02-03T06:19:50.616Z,60.31
2023-02-03T06:20:50.605Z,56.21
2023-02-03T06:21:50.598Z,54.64
2023-02-03T06:22:50.601Z,59.01
2023-02-03T06:23:50.573Z,53.52
2023-02-03T06:24:50.580Z,52.22
2023-02-03T06:25:50.584Z,51.23
2023-02-03T06:26:50.585Z,54.02
2023-02-03T06:27:50.615Z,54.00
2023-02-03T06:28:50.561Z,53.29
2023-02-03T06:29:50.567Z,52.36
2023-02-03T06:30:50.607Z,55.62
2023-02-03T06:31:50.699Z,57.07
2023-02-03T06:32:50.529Z,56.92
2023-02-03T06:33:50.524Z,53.52
2023-02-03T06:34:50.492Z,52.92
2023-02-03T06:35:50.489Z,51.54
2023-02-03T06:36:50.470Z,57.06
2023-02-03T06:37:50.488Z,55.68
2023-02-03T06:38:50.471Z,58.58
2023-02-03T06:39:50.451Z,52.26
2023-02-03T06:40:50.448Z,55.85
2023-02-03T06:41:50.464Z,50.77
2023-02-03T06:42:50.476Z,52.29
2023-02-03T06:43:50.557Z,48.84
2023-02-03T06:44:51.531Z,57.56
2023-02-03T06:45:50.491Z,52.45
2023-02-03T06:46:50.422Z,52.27
2023-02-03T06:47:50.444Z,54.60
2023-02-03T06:48:50.429Z,55.75
2023-02-03T06:49:50.447Z,56.32
2023-02-03T06:50:50.406Z,54.79
2023-02-03T06:51:50.395Z,57.44
2023-02-03T06:52:50.372Z,57.29
2023-02-03T06:53:50.371Z,53.42
2023-02-03T06:54:50.317Z,48.76
2023-02-03T06:55:50.580Z,53.88
2023-02-03T06:56:50.351Z,55.07
2023-02-03T06:57:50.402Z,57.50
2023-02-03T06:58:50.358Z,56.40
2023-02-03T06:59:50.295Z,52.02
2023-02-03T07:00:50.347Z,55.85
2023-02-03T07:01:50.388Z,54.53
2023-02-03T07:02:50.369Z,50.42
2023-02-03T07:03:50.293Z,55.68
2023-02-03T07:04:50.266Z,56.40
2023-02-03T07:05:50.323Z,51.66
2023-02-03T07:06:50.194Z,52.69
2023-02-03T07:07:50.249Z,54.12
2023-02-03T07:08:50.223Z,52.35
2023-02-03T07:09:50.212Z,54.48
2023-02-03T07:10:50.199Z,51.53
2023-02-03T07:11:50.228Z,46.13
2023-02-03T07:12:50.173Z,47.32
2023-02-03T07:13:50.182Z,49.01
2023-02-03T07:14:50.133Z,51.83
2023-02-03T07:15:50.176Z,50.90
2023-02-03T07:16:50.176Z,49.45
2023-02-03T07:17:50.162Z,50.76
2023-02-03T07:18:50.165Z,49.10
2023-02-03T07:19:50.195Z,51.61
2023-02-03T07:20:50.072Z,52.18
2023-02-03T07:21:50.065Z,52.16
2023-02-03T07:22:50.084Z,50.02
2023-02-03T07:23:50.084Z,51.06
2023-02-03T07:24:50.032Z,54.97
2023-02-03T07:25:50.007Z,51.63
2023-02-03T07:26:49.990Z,54.61
2023-02-03T07:27:50.036Z,51.49
2023-02-03T07:28:50.016Z,53.23
2023-02-03T07:29:50.025Z,48.40
2023-02-03T07:30:50.255Z,51.09
2023-02-03T07:31:50.044Z,52.98
2023-02-03T07:32:49.939Z,49.21
2023-02-03T07:33:49.931Z,49.66
2023-02-03T07:34:49.930Z,52.96
2023-02-03T07:35:49.884Z,56.08
2023-02-03T07:36:49.925Z,51.28
2023-02-03T07:37:49.886Z,53.07
2023-02-03T07:38:49.903Z,54.09
2023-02-03T07:39:49.878Z,54.85
2023-02-03T07:40:49.892Z,52.59
2023-02-03T07:41:49.830Z,48.93
2023-02-03T07:42:49.905Z,48.22
2023-02-03T07:43:49.794Z,50.54
2023-02-03T07:44:49.849Z,55.18
2023-02-03T07:45:49.810Z,56.18
2023-02-03T07:46:49.844Z,53.37
2023-02-03T07:47:49.782Z,54.58
2023-02-03T07:48:49.842Z,55.11
2023-02-03T07:49:49.917Z,54.00
2023-02-03T07:50:49.804Z,54.85
2023-02-03T07:51:49.804Z,54.32
2023-02-03T07:52:49.772Z,51.73
2023-02-03T07:53:49.727Z,53.29
2023-02-03T07:54:49.731Z,51.78
2023-02-03T07:55:49.739Z,50.33
2023-02-03T07:56:49.702Z,49.96
2023-02-03T07:57:49.678Z,52.57
2023-02-03T07:58:49.720Z,57.53
2023-02-03T07:59:49.679Z,51.16
2023-02-03T08:00:49.650Z,51.32
2023-02-03T08:01:49.738Z,52.97
2023-02-03T08:02:49.623Z,56.70
2023-02-03T08:03:49.632Z,50.65
2023-02-03T08:04:49.691Z,52.13
2023-02-03T08:05:49.643Z,53.09
2023-02-03T08:06:49.620Z,52.46
2023-02-03T08:07:49.591Z,50.25
2023-02-03T08:08:49.589Z,53.51
2023-02-03T08:09:49.605Z,54.33
2023-02-03T08:10:49.566Z,56.20
2023-02-03T08:11:49.639Z,52.11
2023-02-03T08:12:49.515Z,50.95
2023-02-03T08:13:49.577Z,52.46
2023-02-03T08:14:49.572Z,48.55
2023-02-03T08:15:49.610Z,51.38
2023-02-03T08:16:49.541Z,58.66
2023-02-03T08:17:49.474Z,57.62
2023-02-03T08:18:49.566Z,50.55
2023-02-03T08:19:49.546Z,53.59
2023-02-03T08:20:49.501Z,52.16
2023-02-03T08:21:49.419Z,57.59
2023-02-03T08:22:49.491Z,55.42
2023-02-03T08:23:49.407Z,51.13
2023-02-03T08:24:49.513Z,54.92
2023-02-03T08:25:49.414Z,55.21
2023-02-03T08:26:49.394Z,54.86
2023-02-03T08:27:49.442Z,52.47
2023-02-03T08:28:49.369Z,56.60
2023-02-03T08:29:50.178Z,54.93
2023-02-03T08:30:49.430Z,53.89
2023-02-03T08:31:49.352Z,54.80
2023-02-03T08:32:49.370Z,50.32
2023-02-03T08:33:49.375Z,52.32
2023-02-03T08:34:49.369Z,56.41
2023-02-03T08:35:49.364Z,57.18
2023-02-03T08:36:49.331Z,50.72
2023-02-03T08:37:49.303Z,55.00
2023-02-03T08:38:49.289Z,55.92
2023-02-03T08:39:49.322Z,58.05
2023-02-03T08:40:49.207Z,54.37
2023-02-03T08:41:49.252Z,53.06
2023-02-03T08:42:49.303Z,52.66
2023-02-03T08:43:49.190Z,51.24
2023-02-03T08:44:49.222Z,54.70
2023-02-03T08:45:49.328Z,51.94
2023-02-03T08:46:49.164Z,56.15
2023-02-03T08:47:49.193Z,53.53
2023-02-03T08:48:49.187Z,51.55
2023-02-03T08:49:49.164Z,53.09
2023-02-03T08:50:49.129Z,51.91
2023-02-03T08:51:49.146Z,49.51
2023-02-03T08:52:49.149Z,51.53
2023-02-03T08:53:49.117Z,48.04
2023-02-03T08:54:49.187Z,56.00
2023-02-03T08:55:49.126Z,50.89
2023-02-03T08:56:49.099Z,52.50
2023-02-03T08:57:49.054Z,54.02
2023-02-03T08:58:49.075Z,55.69
2023-02-03T08:59:49.056Z,54.36
2023-02-03T09:00:49.077Z,52.29
2023-02-03T09:01:49.032Z,58.12
2023-02-03T09:02:49.057Z,55.82
2023-02-03T09:03:49.037Z,52.23
2023-02-03T09:04:49.165Z,56.52
2023-02-03T09:05:49.015Z,50.92
2023-02-03T09:06:49.014Z,51.93
2023-02-03T09:07:48.972Z,54.03
2023-02-03T09:08:49.003Z,52.43
2023-02-03T09:09:48.936Z,56.17
2023-02-03T09:10:49.087Z,52.11
2023-02-03T09:11:48.993Z,57.39
2023-02-03T09:12:48.989Z,51.57
2023-02-03T09:13:48.895Z,55.23
2023-02-03T09:14:49.013Z,56.84
2023-02-03T09:15:48.952Z,50.87
2023-02-03T09:16:49.910Z,52.27
2023-02-03T09:17:48.858Z,55.21
2023-02-03T09:18:48.855Z,52.72
2023-02-03T09:19:48.935Z,49.46
2023-02-03T09:20:48.856Z,52.86
2023-02-03T09:21:48.855Z,56.05
2023-02-03T09:22:48.870Z,58.53
2023-02-03T09:23:48.805Z,57.26
2023-02-03T09:24:48.798Z,55.14
2023-02-03T09:25:49.589Z,51.45
2023-02-03T09:26:49.778Z,57.05
2023-02-03T09:27:49.803Z,57.50
2023-02-03T09:28:48.779Z,53.52
2023-02-03T09:29:48.732Z,51.44
2023-02-03T09:30:48.785Z,57.28
2023-02-03T09:31:48.782Z,49.45
2023-02-03T09:32:48.662Z,58.77
2023-02-03T09:33:48.658Z,52.40
2023-02-03T09:34:48.646Z,52.61
2023-02-03T09:35:48.639Z,56.74
2023-02-03T09:36:48.611Z,53.41
2023-02-03T09:37:48.632Z,55.67
2023-02-03T09:38:48.591Z,53.22
2023-02-03T09:39:48.583Z,52.31
2023-02-03T09:40:48.588Z,52.99
2023-02-03T09:41:48.585Z,55.16
2023-02-03T09:42:48.582Z,55.49
2023-02-03T09:43:55.112Z,58.70
2023-02-03T09:44:48.547Z,58.58
2023-02-03T09:45:48.631Z,51.23
2023-02-03T09:46:48.509Z,53.00
2023-02-03T09:47:48.495Z,55.84
2023-02-03T09:48:48.520Z,56.25
2023-02-03T09:49:49.202Z,51.78
2023-02-03T09:50:48.538Z,49.37
2023-02-03T09:51:48.476Z,57.00
2023-02-03T09:52:48.468Z,53.80
2023-02-03T09:53:48.485Z,56.30
2023-02-03T09:54:48.553Z,53.14
2023-02-03T09:55:48.517Z,51.59
2023-02-03T09:56:48.484Z,51.47
2023-02-03T09:57:48.462Z,60.28
2023-02-03T09:58:48.422Z,55.29
2023-02-03T09:59:49.189Z,54.15
2023-02-03T10:00:48.455Z,55.35
2023-02-03T10:01:48.426Z,58.48
2023-02-03T10:02:48.382Z,55.49
2023-02-03T10:03:48.408Z,54.21
2023-02-03T10:04:48.372Z,58.55
2023-02-03T10:05:48.394Z,49.78
2023-02-03T10:06:48.392Z,58.95
2023-02-03T10:07:50.740Z,56.01
2023-02-03T10:08:48.357Z,58.95
2023-02-03T10:09:48.288Z,52.34
2023-02-03T10:10:48.334Z,52.46
2023-02-03T10:11:48.282Z,48.06
2023-02-03T10:12:48.413Z,51.77
2023-02-03T10:13:48.292Z,56.67
2023-02-03T10:14:48.265Z,55.01
2023-02-03T10:15:48.880Z,55.65
2023-02-03T10:16:48.304Z,49.95
2023-02-03T10:17:48.289Z,55.93
2023-02-03T10:18:48.267Z,57.78
2023-02-03T10:19:48.191Z,53.26
2023-02-03T10:20:48.183Z,54.50
2023-02-03T10:21:48.244Z,48.99
2023-02-03T10:22:48.197Z,48.13
2023-02-03T10:23:48.180Z,48.20
2023-02-03T10:24:48.257Z,52.69
2023-02-03T10:25:48.297Z,54.67
2023-02-03T10:26:48.207Z,53.47
2023-02-03T10:27:48.193Z,56.35
2023-02-03T10:28:48.158Z,54.69
2023-02-03T10:29:48.140Z,51.20
2023-02-03T10:30:49.206Z,54.60
2023-02-03T10:31:48.311Z,49.14
2023-02-03T10:32:48.186Z,56.78
2023-02-03T10:33:48.106Z,55.04
2023-02-03T10:34:48.123Z,55.05
2023-02-03T10:36:21.968Z,56.60
2023-02-03T10:36:48.159Z,52.31
2023-02-03T10:37:48.085Z,51.05
2023-02-03T10:38:49.696Z,56.58
2023-02-03T10:39:48.144Z,58.59
2023-02-03T10:40:48.155Z,49.45
2023-02-03T10:41:48.042Z,50.45
2023-02-03T10:42:48.037Z,55.99
2023-02-03T10:43:47.987Z,51.55
2023-02-03T10:44:48.015Z,55.60
2023-02-03T10:45:48.035Z,53.90
2023-02-03T10:46:48.011Z,52.68
2023-02-03T10:47:47.956Z,48.42
2023-02-03T10:48:47.996Z,51.09
2023-02-03T10:49:48.206Z,51.98
2023-02-03T10:50:48.014Z,57.55
2023-02-03T10:51:48.013Z,55.81
2023-02-03T10:52:47.979Z,55.72
2023-02-03T10:53:47.925Z,55.17
2023-02-03T10:54:47.942Z,57.08
2023-02-03T10:55:47.870Z,54.35
2023-02-03T10:56:47.917Z,54.38
2023-02-03T10:57:47.942Z,51.01
2023-02-03T10:58:47.950Z,55.60
2023-02-03T10:59:47.891Z,52.00
2023-02-03T11:00:47.840Z,52.18
2023-02-03T11:01:48.901Z,57.19
2023-02-03T11:02:47.996Z,57.47
2023-02-03T11:03:47.855Z,56.57
2023-02-03T11:04:47.904Z,55.67
2023-02-03T11:05:47.836Z,57.56
2023-02-03T11:06:47.806Z,55.27
2023-02-03T11:07:47.790Z,51.10
2023-02-03T11:08:47.763Z,52.65
2023-02-03T11:09:47.882Z,57.15
2023-02-03T11:10:47.796Z,58.44
2023-02-03T11:11:47.773Z,52.62
2023-02-03T11:12:47.800Z,51.31
2023-02-03T11:13:47.748Z,55.38
2023-02-03T11:14:47.783Z,56.76
2023-02-03T11:15:47.819Z,56.41
2023-02-03T11:16:47.728Z,58.45
2023-02-03T11:17:47.684Z,57.59
2023-02-03T11:18:47.687Z,59.12
2023-02-03T11:19:47.722Z,55.10
2023-02-03T11:20:47.694Z,54.53
2023-02-03T11:21:47.700Z,54.55
2023-02-03T11:22:47.606Z,55.10
2023-02-03T11:23:47.555Z,51.13
2023-02-03T11:24:47.574Z,56.97
2023-02-03T11:25:47.541Z,55.65
2023-02-03T11:26:47.530Z,54.48
2023-02-03T11:27:47.579Z,55.12
2023-02-03T11:28:47.532Z,49.17
2023-02-03T11:29:47.479Z,50.54
2023-02-03T11:30:47.605Z,53.52
2023-02-03T11:31:47.593Z,54.64
2023-02-03T11:32:47.503Z,51.45
2023-02-03T11:33:47.478Z,52.34
2023-02-03T11:34:47.534Z,56.09
2023-02-03T11:35:47.471Z,55.60
2023-02-03T11:36:47.490Z,55.15
2023-02-03T11:37:47.416Z,54.68
2023-02-03T11:38:47.452Z,54.93
2023-02-03T11:39:47.441Z,51.06
2023-02-03T11:40:47.380Z,53.69
2023-02-03T11:41:47.380Z,58.16
2023-02-03T11:42:47.393Z,56.85
2023-02-03T11:43:47.363Z,56.06
2023-02-03T11:44:47.442Z,51.60
2023-02-03T11:45:47.404Z,52.09
2023-02-03T11:46:47.462Z,52.50
2023-02-03T11:47:47.423Z,52.68
2023-02-03T11:48:47.357Z,54.11
2023-02-03T11:49:47.371Z,52.25
2023-02-03T11:50:47.384Z,49.58
2023-02-03T11:51:47.382Z,57.49
2023-02-03T11:52:47.391Z,49.25
2023-02-03T11:53:56.560Z,53.01
2023-02-03T11:54:49.346Z,52.26
2023-02-03T11:55:47.313Z,53.12
2023-02-03T11:56:47.285Z,52.43
2023-02-03T11:57:47.366Z,54.26
2023-02-03T11:58:47.299Z,56.54
2023-02-03T11:59:47.283Z,50.29
2023-02-03T12:00:47.268Z,55.07
2023-02-03T12:01:47.275Z,55.57
2023-02-03T12:02:47.243Z,56.19
2023-02-03T12:03:47.253Z,57.08
2023-02-03T12:04:47.353Z,53.87
2023-02-03T12:05:47.219Z,57.62
2023-02-03T12:06:47.192Z,58.04
2023-02-03T12:07:47.224Z,53.09
2023-02-03T12:08:47.133Z,50.29
2023-02-03T12:09:47.127Z,49.06
2023-02-03T12:10:47.121Z,51.92
2023-02-03T12:11:47.233Z,57.08
2023-02-03T12:12:47.098Z,55.08
2023-02-03T12:13:47.113Z,58.52
2023-02-03T12:14:48.158Z,54.26
2023-02-03T12:15:47.138Z,56.46
2023-02-03T12:16:47.069Z,57.14
2023-02-03T12:17:47.120Z,57.98
2023-02-03T12:18:47.131Z,55.39
2023-02-03T12:19:47.058Z,52.23
2023-02-03T12:20:47.097Z,55.62
2023-02-03T12:21:47.026Z,53.36
2023-02-03T12:22:47.058Z,55.75
2023-02-03T12:23:47.045Z,52.20
2023-02-03T12:24:47.012Z,54.28
2023-02-03T12:25:47.024Z,56.31
2023-02-03T12:26:46.998Z,52.29
2023-02-03T12:27:47.013Z,49.33
2023-02-03T12:28:46.943Z,55.10
2023-02-03T12:29:46.936Z,52.76
2023-02-03T12:30:46.979Z,54.49
2023-02-03T12:31:46.953Z,57.17
2023-02-03T12:32:46.917Z,50.55
2023-02-03T12:33:46.951Z,49.62
2023-02-03T12:34:46.927Z,53.52
2023-02-03T12:35:46.929Z,57.49
2023-02-03T12:36:46.950Z,55.77
2023-02-03T12:37:46.858Z,49.54
2023-02-03T12:38:46.864Z,57.10
2023-02-03T12:39:46.841Z,56.79
2023-02-03T12:40:48.933Z,55.34
2023-02-03T12:41:47.812Z,55.07
2023-02-03T12:42:46.780Z,54.88
2023-02-03T12:43:48.538Z,52.64
2023-02-03T12:44:48.220Z,51.56
2023-02-03T12:45:46.804Z,53.38
2023-02-03T12:46:46.746Z,55.77
2023-02-03T12:47:49.925Z,58.50
2023-02-03T12:48:49.536Z,52.95
2023-02-03T12:49:49.038Z,52.26
2023-02-03T12:50:47.503Z,56.94
2023-02-03T12:53:09.635Z,58.29
2023-02-03T12:53:16.397Z,0.00
2023-02-03T12:54:17.137Z,51.82
2023-02-03T12:55:13.550Z,53.30